createdAt,value
2022-12-13T00:00:46.060Z,-1.90
2022-12-13T00:03:12.181Z,-1.40
2022-12-13T00:05:43.867Z,-1.90
2022-12-13T00:08:10.077Z,-1.90
2022-12-13T00:10:36.461Z,-1.80
2022-12-13T00:13:03.864Z,-1.90
2022-12-13T00:15:31.570Z,-1.60
2022-12-13T00:17:57.728Z,-1.90
2022-12-13T00:20:23.998Z,-1.90
2022-12-13T00:22:52.464Z,-1.50
2022-12-13T00:25:20.746Z,-1.90
2022-12-13T00:27:46.952Z,-1.90
2022-12-13T00:30:13.250Z,-1.80
2022-12-13T00:32:39.438Z,-1.30
2022-12-13T00:35:06.502Z,-1.90
2022-12-13T00:37:32.628Z,-1.90
2022-12-13T00:39:58.935Z,-1.90
2022-12-13T00:42:25.433Z,-1.10
2022-12-13T00:44:51.699Z,-0.80
2022-12-13T00:47:20.141Z,-1.90
2022-12-13T00:49:46.408Z,-1.60
2022-12-13T00:52:13.022Z,-1.30
2022-12-13T00:54:39.464Z,-1.70
2022-12-13T00:57:05.701Z,-1.90
2022-12-13T00:59:31.824Z,-1.80
2022-12-13T01:01:58.076Z,-1.90
2022-12-13T01:04:24.195Z,-1.90
2022-12-13T01:06:50.919Z,-1.60
2022-12-13T01:09:22.961Z,-1.90
2022-12-13T01:11:49.523Z,-1.90
2022-12-13T01:14:17.271Z,-1.90
2022-12-13T01:16:43.549Z,-1.20
2022-12-13T01:19:09.702Z,-1.90
2022-12-13T01:21:36.122Z,-0.90
2022-12-13T01:24:03.495Z,-1.90
2022-12-13T01:26:29.949Z,-1.90
2022-12-13T01:28:56.129Z,-0.70
2022-12-13T01:31:22.611Z,-1.00
2022-12-13T01:33:48.791Z,-1.30
2022-12-13T01:36:16.747Z,-1.90
2022-12-13T01:38:43.972Z,-2.00
2022-12-13T01:41:18.270Z,-2.00
2022-12-13T01:43:54.937Z,-2.00
2022-12-13T01:46:21.286Z,-2.00
2022-12-13T01:49:06.113Z,-1.70
2022-12-13T01:51:55.826Z,-2.10
2022-12-13T01:54:24.310Z,-2.10
2022-12-13T01:57:01.206Z,-1.60
2022-12-13T01:59:27.337Z,-2.10
2022-12-13T02:01:54.600Z,-1.90
2022-12-13T02:04:53.469Z,-2.10
2022-12-13T02:07:22.627Z,-2.10
2022-12-13T02:09:57.193Z,-1.90
2022-12-13T02:12:29.822Z,-1.40
2022-12-13T02:15:00.825Z,-2.10
2022-12-13T02:17:52.618Z,-2.20
2022-12-13T02:20:57.226Z,-2.20
2022-12-13T02:23:50.599Z,-2.20
2022-12-13T02:31:31.782Z,-1.70
2022-12-13T02:34:09.507Z,-2.20
2022-12-13T02:36:53.468Z,-1.90
2022-12-13T02:41:00.766Z,-2.30
2022-12-13T02:44:01.385Z,-2.30
2022-12-13T02:46:29.282Z,-2.30
2022-12-13T02:48:55.676Z,-2.30
2022-12-13T02:51:22.151Z,-1.90
2022-12-13T02:53:48.322Z,-2.20
2022-12-13T02:56:14.571Z,-2.40
2022-12-13T02:58:43.438Z,-2.40
2022-12-13T03:02:59.028Z,-2.60
2022-12-13T03:06:59.657Z,-2.60
2022-12-13T03:10:42.699Z,-2.80
2022-12-13T03:13:31.670Z,-2.90
2022-12-13T03:15:58.985Z,-2.90
2022-12-13T03:18:28.394Z,-2.40
2022-12-13T03:21:04.229Z,-2.50
2022-12-13T03:23:30.432Z,-3.50
2022-12-13T03:26:09.803Z,-2.30
2022-12-13T03:28:36.377Z,-3.80
2022-12-13T03:31:03.010Z,-3.80
2022-12-13T03:33:29.348Z,-4.00
2022-12-13T03:35:55.660Z,-3.50
2022-12-13T03:38:23.443Z,-4.20
2022-12-13T03:40:55.389Z,-4.30
2022-12-13T03:43:22.567Z,-4.10
2022-12-13T03:45:50.354Z,-4.50
2022-12-13T03:50:50.873Z,-4.30
2022-12-13T03:53:23.134Z,-4.30
2022-12-13T03:56:01.010Z,-4.10
2022-12-13T03:58:35.349Z,-4.40
2022-12-13T04:01:08.071Z,-4.40
2022-12-13T04:03:35.380Z,-4.50
2022-12-13T04:08:28.526Z,-4.70
2022-12-13T04:13:34.386Z,-4.60
2022-12-13T04:16:01.636Z,-4.70
2022-12-13T04:20:54.450Z,-4.90
2022-12-13T04:23:21.438Z,-4.90
2022-12-13T04:25:48.133Z,-4.90
2022-12-13T04:28:22.240Z,-4.60
2022-12-13T04:33:21.263Z,-4.80
2022-12-13T04:35:47.969Z,-4.70
2022-12-13T04:38:14.178Z,-4.60
2022-12-13T04:48:00.237Z,-4.10
2022-12-13T04:57:47.709Z,-3.60
2022-12-13T05:00:15.267Z,-3.70
2022-12-13T05:05:09.596Z,-3.40
2022-12-13T05:10:10.187Z,-3.40
2022-12-13T05:19:56.103Z,-3.10
2022-12-13T05:32:44.270Z,-2.90
2022-12-13T05:35:22.181Z,-3.00
2022-12-13T05:37:54.076Z,-2.90
2022-12-13T05:40:24.939Z,-2.90
2022-12-13T05:42:51.106Z,-2.80
2022-12-13T05:45:18.407Z,-2.80
2022-12-13T05:47:44.986Z,-3.10
2022-12-13T05:50:11.964Z,-3.30
2022-12-13T05:52:39.168Z,-2.90
2022-12-13T05:55:06.072Z,-2.80
2022-12-13T06:00:00.357Z,-2.70
2022-12-13T06:07:20.634Z,-2.80
2022-12-13T06:09:47.782Z,-2.80
2022-12-13T06:12:31.853Z,-2.80
2022-12-13T06:20:22.865Z,-2.80
2022-12-13T06:22:51.469Z,-3.10
2022-12-13T06:28:01.657Z,-2.50
2022-12-13T06:30:30.924Z,-3.00
2022-12-13T06:32:58.149Z,-2.90
2022-12-13T06:35:28.704Z,-2.90
2022-12-13T06:38:00.872Z,-3.00
2022-12-13T06:40:29.734Z,-2.80
2022-12-13T06:45:22.825Z,-2.90
2022-12-13T06:47:49.322Z,-2.80
2022-12-13T06:55:09.233Z,-2.80
2022-12-13T06:57:35.473Z,-2.70
2022-12-13T07:00:04.275Z,-2.80
2022-12-13T07:02:30.892Z,-2.70
2022-12-13T07:09:51.969Z,-2.90
2022-12-13T07:12:21.056Z,-3.00
2022-12-13T07:14:47.386Z,-2.80
2022-12-13T07:17:13.692Z,-2.50
2022-12-13T07:22:27.607Z,-2.80
2022-12-13T07:24:53.876Z,-2.80
2022-12-13T07:29:46.567Z,-2.70
2022-12-13T07:32:12.758Z,-2.60
2022-12-13T07:34:39.472Z,-2.60
2022-12-13T07:37:05.735Z,-2.40
2022-12-13T07:39:32.043Z,-2.50
2022-12-13T07:41:58.242Z,-2.30
2022-12-13T07:49:18.505Z,-2.10
2022-12-13T07:51:44.658Z,-2.20
2022-12-13T07:54:10.910Z,-2.10
2022-12-13T07:56:37.113Z,-2.00
2022-12-13T07:59:03.336Z,-2.00
2022-12-13T08:01:33.695Z,-2.00
2022-12-13T08:04:01.113Z,-1.90
2022-12-13T08:06:27.625Z,-1.70
2022-12-13T08:08:57.194Z,-1.80
2022-12-13T08:13:50.220Z,-1.80
2022-12-13T08:16:26.103Z,-1.90
2022-12-13T08:18:53.099Z,-1.70
2022-12-13T08:21:53.981Z,-1.50
2022-12-13T08:24:21.180Z,-1.60
2022-12-13T08:26:47.466Z,-1.70
2022-12-13T08:29:23.552Z,-1.50
2022-12-13T08:32:04.940Z,-1.40
2022-12-13T08:34:31.165Z,-1.50
2022-12-13T08:37:02.949Z,-1.40
2022-12-13T08:39:37.437Z,-1.40
2022-12-13T08:42:16.351Z,-1.30
2022-12-13T08:44:48.466Z,-1.40
2022-12-13T08:47:23.479Z,-1.30
2022-12-13T08:49:52.483Z,-1.40
2022-12-13T08:52:20.171Z,-0.60
2022-12-13T08:54:46.744Z,-1.40
2022-12-13T08:57:13.372Z,-0.80
2022-12-13T08:59:40.068Z,-1.20
2022-12-13T09:02:06.430Z,-1.30
2022-12-13T09:04:33.060Z,-1.40
2022-12-13T09:09:29.740Z,-1.40
2022-12-13T09:11:59.296Z,-1.70
2022-12-13T09:14:34.165Z,-1.40
2022-12-13T09:17:02.718Z,-1.30
2022-12-13T09:19:30.102Z,-1.20
2022-12-13T09:22:03.986Z,-1.10
2022-12-13T09:24:35.927Z,-1.10
2022-12-13T09:27:09.828Z,-0.70
2022-12-13T09:29:37.634Z,-0.90
2022-12-13T09:32:04.841Z,-0.80
2022-12-13T09:34:32.452Z,-1.00
2022-12-13T09:37:01.462Z,-0.90
2022-12-13T09:39:29.175Z,-1.00
2022-12-13T09:42:01.111Z,-1.00
2022-12-13T09:44:42.401Z,-1.10
2022-12-13T09:47:39.529Z,-1.10
2022-12-13T09:50:38.771Z,-1.20
2022-12-13T09:53:11.947Z,-1.30
2022-12-13T09:55:41.413Z,-1.30
2022-12-13T09:58:28.326Z,-1.00
2022-12-13T10:00:55.098Z,-0.90
2022-12-13T10:03:22.661Z,-0.80
2022-12-13T10:06:00.983Z,-0.70
2022-12-13T10:08:39.789Z,-0.30
2022-12-13T10:11:05.980Z,-0.40
2022-12-13T10:13:46.370Z,-0.20
2022-12-13T10:16:57.864Z,-0.10
2022-12-13T10:19:38.938Z,0.40
2022-12-13T10:22:09.887Z,-0.30
2022-12-13T10:25:00.300Z,-0.30
2022-12-13T10:27:43.386Z,-0.20
2022-12-13T10:30:17.607Z,-0.10
2022-12-13T10:32:56.132Z,0.00
2022-12-13T10:35:30.363Z,0.10
2022-12-13T10:37:59.428Z,0.60
2022-12-13T10:40:36.843Z,0.40
2022-12-13T10:43:20.130Z,0.50
2022-12-13T10:46:01.911Z,0.80
2022-12-13T10:49:21.732Z,0.70
2022-12-13T10:51:49.723Z,0.90
2022-12-13T10:54:21.105Z,0.50
2022-12-13T10:56:50.738Z,0.50
2022-12-13T10:59:36.688Z,1.20
2022-12-13T11:02:35.881Z,0.90
2022-12-13T11:05:24.827Z,0.90
2022-12-13T11:07:51.378Z,3.50
2022-12-13T11:10:27.703Z,0.70
2022-12-13T11:12:59.871Z,0.80
2022-12-13T11:15:26.369Z,0.80
2022-12-13T11:18:02.748Z,0.90
2022-12-13T11:20:35.123Z,1.20
2022-12-13T11:23:15.938Z,1.30
2022-12-13T11:25:43.319Z,1.20
2022-12-13T11:30:13.748Z,0.70
2022-12-13T11:34:55.824Z,0.40
2022-12-13T11:38:00.776Z,0.50
2022-12-13T11:40:31.471Z,0.40
2022-12-13T11:44:04.827Z,0.30
2022-12-13T11:46:45.207Z,0.40
2022-12-13T11:49:19.338Z,0.30
2022-12-13T11:51:51.856Z,0.10
2022-12-13T11:54:34.577Z,0.00
2022-12-13T11:57:05.575Z,-0.20
2022-12-13T11:59:41.833Z,-0.30
2022-12-13T12:02:29.820Z,-0.40
2022-12-13T12:05:00.565Z,-0.50
2022-12-13T12:08:12.741Z,-0.10
2022-12-13T12:11:53.528Z,-0.80
2022-12-13T12:14:43.261Z,-0.90
2022-12-13T12:17:13.937Z,-1.00
2022-12-13T12:19:41.796Z,-0.90
2022-12-13T12:22:50.598Z,-0.80
2022-12-13T12:26:04.848Z,-0.70
2022-12-13T12:30:08.847Z,-0.60
2022-12-13T12:37:51.433Z,-0.50
2022-12-13T12:41:15.158Z,0.00
2022-12-13T12:43:42.945Z,0.20
2022-12-13T12:47:01.917Z,0.00
2022-12-13T12:51:46.690Z,-0.10
2022-12-13T12:54:35.018Z,0.00
2022-12-13T13:04:01.527Z,-0.10
2022-12-13T13:06:31.769Z,-0.20
2022-12-13T13:09:07.081Z,-0.40
2022-12-13T13:11:44.217Z,-0.60
2022-12-13T13:14:38.091Z,-0.70
2022-12-13T13:18:57.192Z,-0.70
2022-12-13T13:21:36.214Z,-0.80
2022-12-13T13:24:17.192Z,-1.00
2022-12-13T13:26:48.493Z,-1.20
2022-12-13T13:29:48.091Z,-1.40
2022-12-13T13:32:29.699Z,-1.50
2022-12-13T13:35:47.573Z,-1.60
2022-12-13T13:38:47.399Z,-1.80
2022-12-13T13:41:39.318Z,-1.90
2022-12-13T13:46:16.438Z,-2.00
2022-12-13T13:49:03.564Z,-2.10
2022-12-13T13:58:27.466Z,-2.20
2022-12-13T14:01:35.229Z,-2.20
2022-12-13T14:09:38.608Z,-2.20
2022-12-13T14:16:35.450Z,-1.90
2022-12-13T14:22:08.760Z,-1.60
2022-12-13T14:26:23.422Z,-1.50
2022-12-13T14:28:52.300Z,-1.50
2022-12-13T14:32:08.654Z,-1.70
2022-12-13T14:34:53.592Z,-1.90
2022-12-13T14:37:30.113Z,-2.20
2022-12-13T14:39:58.512Z,-2.50
2022-12-13T14:42:30.872Z,-2.30
2022-12-13T14:45:18.828Z,-3.00
2022-12-13T14:47:45.749Z,-3.20
2022-12-13T14:50:14.583Z,-3.30
2022-12-13T14:55:26.020Z,-3.50
2022-12-13T14:57:54.969Z,-3.60
2022-12-13T15:00:45.522Z,-3.90
2022-12-13T15:03:25.702Z,-3.80
2022-12-13T15:05:54.451Z,-4.20
2022-12-13T15:10:59.557Z,-4.30
2022-12-13T15:16:26.426Z,-4.50
2022-12-13T15:19:28.958Z,-4.80
2022-12-13T15:22:13.223Z,-5.00
2022-12-13T15:24:41.673Z,-5.20
2022-12-13T15:27:10.126Z,-5.10
2022-12-13T15:32:16.059Z,-5.60
2022-12-13T15:37:34.527Z,-5.90
2022-12-13T15:40:08.308Z,-5.90
2022-12-13T15:42:39.822Z,-6.10
2022-12-13T15:45:17.295Z,-6.10
2022-12-13T15:47:54.151Z,-6.10
2022-12-13T15:50:36.742Z,-6.40
2022-12-13T15:55:47.418Z,-6.50
2022-12-13T15:58:31.813Z,-6.50
2022-12-13T16:03:47.132Z,-6.70
2022-12-13T16:06:23.414Z,-6.70
2022-12-13T16:08:51.416Z,-6.90
2022-12-13T16:11:29.524Z,-6.90
2022-12-13T16:20:59.716Z,-6.90
2022-12-13T16:25:56.858Z,-7.30
2022-12-13T16:31:15.313Z,-7.30
2022-12-13T16:33:42.584Z,-7.30
2022-12-13T16:36:10.990Z,-7.30
2022-12-13T16:41:09.802Z,-7.40
2022-12-13T16:43:56.957Z,-7.10
2022-12-13T16:47:17.505Z,-5.20
2022-12-13T16:49:50.510Z,-7.20
2022-12-13T16:54:50.866Z,-6.90
2022-12-13T16:59:44.813Z,-6.80
2022-12-13T17:02:15.856Z,-6.70
2022-12-13T17:07:10.176Z,-7.30
2022-12-13T17:09:36.475Z,-6.20
2022-12-13T17:19:24.126Z,-5.70
2022-12-13T17:21:50.316Z,-5.60
2022-12-13T17:26:54.453Z,-5.50
2022-12-13T17:29:24.755Z,-5.40
2022-12-13T17:31:52.202Z,-5.30
2022-12-13T17:36:45.282Z,-5.40
2022-12-13T17:39:12.602Z,-5.50
2022-12-13T17:41:39.421Z,-5.50
2022-12-13T17:44:06.502Z,-5.70
2022-12-13T17:46:33.885Z,-5.70
2022-12-13T17:56:22.849Z,-5.20
2022-12-13T18:01:23.151Z,-6.00
2022-12-13T18:03:51.807Z,-5.60
2022-12-13T18:06:18.421Z,-6.10
2022-12-13T18:08:47.618Z,-6.20
2022-12-13T18:11:33.707Z,-6.30
2022-12-13T18:14:01.805Z,-6.40
2022-12-13T18:19:09.572Z,-6.60
2022-12-13T18:24:05.736Z,-6.90
2022-12-13T18:26:32.647Z,-6.80
2022-12-13T18:31:27.249Z,-7.00
2022-12-13T18:36:22.620Z,-7.00
2022-12-13T18:38:50.009Z,-6.80
2022-12-13T18:41:19.742Z,-6.90
2022-12-13T18:43:48.105Z,-6.80
2022-12-13T18:46:15.557Z,-6.70
2022-12-13T18:48:42.141Z,-6.60
2022-12-13T18:53:38.123Z,-6.50
2022-12-13T18:56:17.516Z,-6.50
2022-12-13T18:58:45.273Z,-6.50
2022-12-13T19:01:12.228Z,-6.50
2022-12-13T19:03:39.223Z,-6.70
2022-12-13T19:06:06.354Z,-6.50
2022-12-13T19:08:33.053Z,-6.80
2022-12-13T19:11:01.119Z,-6.70
2022-12-13T19:13:28.796Z,-6.60
2022-12-13T19:15:58.570Z,-6.50
2022-12-13T19:20:53.282Z,-6.60
2022-12-13T19:25:48.605Z,-6.40
2022-12-13T19:30:46.109Z,-6.30
2022-12-13T19:35:46.829Z,-6.10
2022-12-13T19:43:10.894Z,-6.30
2022-12-13T19:48:06.221Z,-6.60
2022-12-13T19:50:32.615Z,-6.70
2022-12-13T19:57:57.315Z,-7.20
2022-12-13T20:05:19.455Z,-7.40
2022-12-13T20:07:48.748Z,-7.70
2022-12-13T20:10:19.321Z,-7.90
2022-12-13T20:12:45.740Z,-8.10
2022-12-13T20:17:40.766Z,-8.20
2022-12-13T20:20:08.195Z,-8.30
2022-12-13T20:25:03.380Z,-8.40
2022-12-13T20:30:00.447Z,-8.50
2022-12-13T20:34:55.105Z,-8.50
2022-12-13T20:39:50.401Z,-8.80
2022-12-13T20:42:18.186Z,-8.80
2022-12-13T20:47:16.693Z,-8.80
2022-12-13T20:49:48.339Z,-8.90
2022-12-13T20:52:17.083Z,-8.70
2022-12-13T20:54:45.124Z,-8.90
2022-12-13T20:59:41.932Z,-9.10
2022-12-13T21:02:11.841Z,-9.10
2022-12-13T21:04:41.327Z,-9.20
2022-12-13T21:07:09.098Z,-9.10
2022-12-13T21:09:35.372Z,-8.90
2022-12-13T21:17:01.437Z,-9.00
2022-12-13T21:19:35.821Z,-9.00
2022-12-13T21:22:05.878Z,-9.10
2022-12-13T21:24:32.350Z,-9.20
2022-12-13T21:26:59.597Z,-9.20
2022-12-13T21:36:49.496Z,-9.10
2022-12-13T21:39:17.546Z,-7.40
2022-12-13T21:44:12.831Z,-9.00
2022-12-13T21:49:36.337Z,-8.80
2022-12-13T21:57:16.981Z,-8.60
2022-12-13T22:02:19.806Z,-8.60
2022-12-13T22:04:56.930Z,-8.60
2022-12-13T22:07:33.201Z,-8.50
2022-12-13T22:10:01.063Z,-8.70
2022-12-13T22:12:35.260Z,-8.60
2022-12-13T22:20:13.023Z,-8.30
2022-12-13T22:22:40.163Z,-7.80
2022-12-13T22:25:07.512Z,-8.00
2022-12-13T22:27:34.325Z,-8.00
2022-12-13T22:32:29.512Z,-7.70
2022-12-13T22:39:50.591Z,-7.60
2022-12-13T22:52:04.697Z,-8.20
2022-12-13T23:04:28.571Z,-8.90
2022-12-13T23:06:54.830Z,-9.10
2022-12-13T23:19:51.015Z,-9.40
2022-12-13T23:22:23.787Z,-9.00
2022-12-13T23:24:51.150Z,-9.50
2022-12-13T23:27:18.452Z,-9.70
2022-12-13T23:29:44.641Z,-8.80
2022-12-13T23:37:04.367Z,-9.60
2022-12-13T23:41:57.234Z,-9.70
2022-12-13T23:46:52.390Z,-9.90
2022-12-13T23:51:45.932Z,-9.80
2022-12-13T23:56:42.071Z,-9.70
